Time;durP1;ratioP1;P1;durP2;ratioP2;P2;SDS_P1;SDS_P2;PMS_P1;PMS_P2;Temp;Humidity;BMP_temperature;BMP_pressure;BME280_temperature;BME280_humidity;BME280_pressure;Samples;Min_cycle;Max_cycle;Signal;HPM_P1;HPM_P2
2021/03/29 00:00:44;;;;;;;16.42;5.28;;;10.30;84.00;;;;;;5092125;28;20070;-70
2021/03/29 00:03:11;;;;;;;16.13;6.38;;;10.30;83.80;;;;;;5092952;28;20484;-68
2021/03/29 00:05:37;;;;;;;16.27;5.28;;;10.30;83.70;;;;;;5057780;28;20040;-69
2021/03/29 00:08:17;;;;;;;17.88;5.32;;;10.30;83.60;;;;;;5092823;28;20499;-69
2021/03/29 00:10:44;;;;;;;17.08;5.53;;;10.30;83.40;;;;;;5073896;28;20062;-69
2021/03/29 00:13:12;;;;;;;14.35;5.25;;;10.30;83.30;;;;;;5092563;28;20040;-69
2021/03/29 00:15:40;;;;;;;16.05;5.40;;;10.30;83.30;;;;;;5092558;28;20040;-69
2021/03/29 00:18:08;;;;;;;15.50;5.72;;;10.30;83.30;;;;;;5092165;28;20036;-69
2021/03/29 00:20:36;;;;;;;14.25;4.97;;;10.20;83.10;;;;;;5092119;28;20556;-69
2021/03/29 00:23:03;;;;;;;12.82;4.53;;;10.30;83.30;;;;;;5092002;28;20119;-69
2021/03/29 00:25:31;;;;;;;12.38;4.45;;;10.30;83.20;;;;;;5074189;28;20040;-67
2021/03/29 00:27:57;;;;;;;16.15;5.15;;;10.30;83.00;;;;;;5091898;28;20442;-67
2021/03/29 00:30:32;;;;;;;15.95;4.80;;;10.30;82.90;;;;;;5092061;28;20040;-67
2021/03/29 00:32:58;;;;;;;17.15;4.65;;;10.30;82.80;;;;;;5092097;28;20081;-67
2021/03/29 00:35:26;;;;;;;18.13;4.63;;;10.30;82.70;;;;;;5091672;28;20044;-67
2021/03/29 00:37:54;;;;;;;13.32;4.85;;;10.30;82.60;;;;;;5092120;28;20036;-67
2021/03/29 00:40:21;;;;;;;17.63;4.53;;;10.30;82.70;;;;;;5091406;28;20043;-67
2021/03/29 00:42:56;;;;;;;13.00;4.53;;;10.30;82.50;;;;;;5091847;28;20036;-67
2021/03/29 00:45:22;;;;;;;13.43;4.13;;;10.30;82.50;;;;;;5091434;28;20127;-66
2021/03/29 00:47:49;;;;;;;12.10;4.28;;;10.30;82.40;;;;;;5073954;28;20086;-67
2021/03/29 00:50:20;;;;;;;12.35;4.20;;;10.40;82.40;;;;;;5091797;28;20513;-67
2021/03/29 00:52:47;;;;;;;15.40;3.97;;;10.30;82.10;;;;;;5073269;28;20043;-67
2021/03/29 00:55:13;;;;;;;11.18;3.38;;;10.40;82.00;;;;;;5090551;28;20051;-67
2021/03/29 00:57:40;;;;;;;11.18;3.50;;;10.30;81.90;;;;;;5089107;28;20498;-68
2021/03/29 01:00:17;;;;;;;12.55;3.95;;;10.30;81.90;;;;;;5091396;28;20043;-67
2021/03/29 01:02:44;;;;;;;14.73;3.80;;;10.40;81.80;;;;;;5090808;28;20047;-67
2021/03/29 01:05:15;;;;;;;12.25;3.60;;;10.40;81.70;;;;;;5091631;28;20063;-67
2021/03/29 01:07:43;;;;;;;13.18;3.65;;;10.40;81.70;;;;;;5073007;28;20051;-67
2021/03/29 01:10:09;;;;;;;11.45;3.47;;;10.40;81.70;;;;;;5091509;28;20506;-67
2021/03/29 01:12:36;;;;;;;13.93;3.55;;;10.30;81.60;;;;;;5091646;28;20047;-67
2021/03/29 01:15:02;;;;;;;11.88;3.60;;;10.40;81.60;;;;;;5091099;28;20032;-67
2021/03/29 01:17:32;;;;;;;12.20;3.80;;;10.40;81.50;;;;;;5073114;28;20411;-68
2021/03/29 01:20:00;;;;;;;13.45;3.55;;;10.40;81.50;;;;;;5064268;28;20085;-67
2021/03/29 01:22:31;;;;;;;13.52;3.72;;;10.30;81.30;;;;;;5056597;28;20050;-67
2021/03/29 01:25:12;;;;;;;12.35;3.92;;;10.30;81.20;;;;;;5073492;28;20032;-67
2021/03/29 01:27:43;;;;;;;13.18;3.80;;;10.30;81.20;;;;;;5091009;28;20036;-68
2021/03/29 01:30:11;;;;;;;12.38;3.72;;;10.30;81.30;;;;;;5091119;28;20032;-67
2021/03/29 01:32:39;;;;;;;13.05;3.70;;;10.30;81.20;;;;;;5090549;28;20514;-68
2021/03/29 01:35:32;;;;;;;12.52;4.10;;;10.30;81.20;;;;;;5091145;28;20039;-67
2021/03/29 01:37:59;;;;;;;13.75;3.65;;;10.30;81.20;;;;;;5067527;28;20060;-67
2021/03/29 01:40:26;;;;;;;12.73;3.90;;;10.40;81.20;;;;;;5072968;28;20056;-67
2021/03/29 01:42:52;;;;;;;13.98;3.95;;;10.40;81.00;;;;;;5090337;28;20046;-67
2021/03/29 01:45:20;;;;;;;15.13;4.00;;;10.40;80.80;;;;;;5090831;28;20067;-67
2021/03/29 01:47:46;;;;;;;11.27;4.20;;;10.40;80.70;;;;;;5091069;28;20064;-67
2021/03/29 01:50:17;;;;;;;19.13;4.70;;;10.40;80.60;;;;;;5090709;28;20040;-67
2021/03/29 01:52:43;;;;;;;14.55;4.18;;;10.40;80.60;;;;;;5073021;28;20040;-67
2021/03/29 01:55:10;;;;;;;12.65;4.28;;;10.40;80.50;;;;;;5090522;28;20047;-67
2021/03/29 01:57:36;;;;;;;11.05;3.78;;;10.40;80.40;;;;;;5085702;28;20044;-67
2021/03/29 02:00:18;;;;;;;13.88;4.85;;;10.40;80.30;;;;;;5090062;28;20048;-68
2021/03/29 02:02:44;;;;;;;14.15;4.07;;;10.40;80.10;;;;;;5054648;28;20085;-67
2021/03/29 02:05:13;;;;;;;13.48;4.15;;;10.40;80.00;;;;;;5090352;28;20040;-68
2021/03/29 02:07:40;;;;;;;14.57;4.05;;;10.40;80.00;;;;;;5091025;28;20040;-69
2021/03/29 02:10:19;;;;;;;12.52;4.35;;;10.50;79.80;;;;;;5090797;28;20500;-69
2021/03/29 02:12:45;;;;;;;12.23;4.38;;;10.50;79.50;;;;;;5072449;28;20470;-69
2021/03/29 02:15:14;;;;;;;14.30;4.68;;;10.50;79.40;;;;;;5069288;28;20124;-69
2021/03/29 02:17:41;;;;;;;14.70;4.18;;;10.40;79.30;;;;;;5070558;28;20119;-68
2021/03/29 02:20:29;;;;;;;12.77;4.53;;;10.50;79.40;;;;;;5071072;28;20393;-69
2021/03/29 02:22:55;;;;;;;11.02;4.20;;;10.40;79.10;;;;;;5072589;28;20097;-69
2021/03/29 02:25:24;;;;;;;10.80;4.35;;;10.40;79.00;;;;;;5074484;28;20135;-68
2021/03/29 02:27:50;;;;;;;11.63;4.53;;;10.40;78.80;;;;;;5074141;28;20134;-68
2021/03/29 02:30:20;;;;;;;11.00;4.20;;;10.40;78.80;;;;;;5073001;28;20051;-71
2021/03/29 02:32:48;;;;;;;13.35;4.80;;;10.40;78.80;;;;;;5074370;28;20044;-69
2021/03/29 02:35:16;;;;;;;13.88;4.90;;;10.40;78.90;;;;;;5073761;28;20115;-68
2021/03/29 02:37:54;;;;;;;14.32;5.05;;;10.40;78.90;;;;;;5074378;28;20041;-69
2021/03/29 02:40:21;;;;;;;11.52;4.38;;;10.40;78.80;;;;;;5073946;28;20098;-68
2021/03/29 02:42:48;;;;;;;14.27;4.47;;;10.40;78.60;;;;;;5072796;28;20029;-69
2021/03/29 02:45:15;;;;;;;10.45;4.20;;;10.40;78.50;;;;;;5073840;28;20138;-66
2021/03/29 02:47:42;;;;;;;13.10;4.47;;;10.40;78.40;;;;;;5072640;28;20068;-66
2021/03/29 02:50:14;;;;;;;10.70;4.30;;;10.50;78.40;;;;;;5072738;28;20036;-66
2021/03/29 02:52:43;;;;;;;12.07;4.30;;;10.50;78.30;;;;;;5073670;28;20046;-67
2021/03/29 02:55:11;;;;;;;12.85;4.47;;;10.50;78.20;;;;;;5073983;28;20047;-67
2021/03/29 02:57:38;;;;;;;13.40;4.20;;;10.50;78.00;;;;;;5072246;28;20134;-66
2021/03/29 03:00:13;;;;;;;13.00;4.70;;;10.50;77.90;;;;;;5070386;28;20119;-67
2021/03/29 03:02:41;;;;;;;9.15;3.72;;;10.50;77.80;;;;;;5082674;28;20073;-67
2021/03/29 03:05:09;;;;;;;13.82;4.90;;;10.50;77.80;;;;;;5093795;28;20438;-66
2021/03/29 03:07:39;;;;;;;13.35;4.78;;;10.50;77.70;;;;;;5075705;28;20051;-66
2021/03/29 03:10:11;;;;;;;15.75;5.43;;;10.50;77.60;;;;;;5093468;28;20449;-67
2021/03/29 03:12:47;;;;;;;11.02;4.43;;;10.50;77.50;;;;;;5075802;28;20051;-67
2021/03/29 03:15:20;;;;;;;15.77;4.15;;;10.50;77.40;;;;;;5075407;28;20480;-66
2021/03/29 03:17:46;;;;;;;12.88;4.40;;;10.50;77.40;;;;;;5074481;28;20052;-67
2021/03/29 03:20:14;;;;;;;13.40;4.63;;;10.50;77.30;;;;;;5093007;28;20678;-67
2021/03/29 03:23:00;;;;;;;12.35;4.43;;;10.50;77.20;;;;;;5075416;28;20043;-67
2021/03/29 03:25:28;;;;;;;12.27;4.18;;;10.50;77.20;;;;;;5093102;28;20162;-66
2021/03/29 03:27:55;;;;;;;10.43;4.35;;;10.50;77.10;;;;;;5093464;28;20047;-67
2021/03/29 03:30:23;;;;;;;16.13;4.93;;;10.50;77.10;;;;;;5092581;28;20039;-67
2021/03/29 03:32:52;;;;;;;14.32;4.40;;;10.50;77.10;;;;;;5092107;28;20035;-67
2021/03/29 03:35:22;;;;;;;16.23;5.22;;;10.50;77.10;;;;;;5093225;28;20059;-67
2021/03/29 03:37:54;;;;;;;12.65;4.78;;;10.50;77.10;;;;;;5093221;28;20570;-68
2021/03/29 03:40:21;;;;;;;13.85;4.55;;;10.50;77.00;;;;;;5092937;28;20404;-67
2021/03/29 03:42:53;;;;;;;12.68;4.93;;;10.50;77.00;;;;;;5092460;28;20039;-67
2021/03/29 03:45:22;;;;;;;12.32;4.85;;;10.50;77.00;;;;;;5092830;28;20047;-67
2021/03/29 03:47:49;;;;;;;13.10;4.45;;;10.50;76.90;;;;;;5057619;28;20048;-67
2021/03/29 03:50:18;;;;;;;13.32;4.72;;;10.50;76.90;;;;;;5074209;28;20040;-67
2021/03/29 03:52:44;;;;;;;11.90;4.53;;;10.50;77.40;;;;;;5073550;28;20040;-67
2021/03/29 03:55:14;;;;;;;12.75;5.13;;;10.50;76.90;;;;;;5092759;28;20042;-66
2021/03/29 03:57:40;;;;;;;12.02;4.55;;;10.50;76.90;;;;;;5092941;28;20044;-67
2021/03/29 04:00:12;;;;;;;11.93;4.85;;;10.50;76.80;;;;;;5073901;28;20484;-66
2021/03/29 04:02:38;;;;;;;15.65;5.18;;;10.50;76.70;;;;;;5087746;28;20043;-67
2021/03/29 04:05:06;;;;;;;12.85;5.05;;;10.50;76.70;;;;;;5073665;28;20028;-67
2021/03/29 04:07:32;;;;;;;10.52;4.65;;;10.50;76.80;;;;;;5092281;28;20036;-67
2021/03/29 04:10:06;;;;;;;15.98;5.10;;;10.50;76.80;;;;;;5091490;28;20028;-67
2021/03/29 04:12:31;;;;;;;12.55;4.88;;;10.50;76.70;;;;;;5073742;28;20085;-67
2021/03/29 04:14:57;;;;;;;11.32;4.32;;;10.50;76.60;;;;;;5090931;28;20124;-66
2021/03/29 04:17:23;;;;;;;12.50;5.25;;;10.60;76.60;;;;;;5056087;28;20488;-67
2021/03/29 04:19:48;;;;;;;12.90;4.55;;;10.60;76.50;;;;;;5057732;28;20040;-67
2021/03/29 04:22:14;;;;;;;13.70;4.50;;;10.50;76.40;;;;;;5091496;28;20036;-67
2021/03/29 04:24:39;;;;;;;12.38;4.80;;;10.50;76.40;;;;;;5092204;28;20035;-67
2021/03/29 04:27:05;;;;;;;13.60;4.80;;;10.50;76.40;;;;;;5088234;28;20040;-67
2021/03/29 04:29:31;;;;;;;9.48;4.30;;;10.50;76.30;;;;;;5089382;28;20036;-67
2021/03/29 04:31:57;;;;;;;14.35;4.70;;;10.50;76.30;;;;;;5085788;28;20043;-67
2021/03/29 04:34:22;;;;;;;9.85;4.88;;;10.50;76.30;;;;;;5099951;28;20036;-67
2021/03/29 04:36:48;;;;;;;12.80;4.97;;;10.50;76.30;;;;;;5054999;28;20043;-67
2021/03/29 04:39:14;;;;;;;11.30;5.25;;;10.50;76.40;;;;;;5091275;28;20455;-67
2021/03/29 04:41:39;;;;;;;14.23;5.05;;;10.50;76.40;;;;;;5038227;28;20376;-69
2021/03/29 04:44:05;;;;;;;12.65;4.82;;;10.50;76.40;;;;;;5090784;28;20032;-67
2021/03/29 04:46:31;;;;;;;13.57;5.03;;;10.50;76.40;;;;;;5085818;28;20473;-67
2021/03/29 04:48:56;;;;;;;11.93;4.90;;;10.50;76.50;;;;;;5088802;28;20075;-67
2021/03/29 04:51:22;;;;;;;19.25;4.93;;;10.40;76.50;;;;;;5079492;28;20040;-67
2021/03/29 04:53:48;;;;;;;14.77;4.72;;;10.40;76.70;;;;;;5073394;28;20036;-67
2021/03/29 04:56:13;;;;;;;14.00;4.57;;;10.40;76.80;;;;;;5091745;28;20058;-67
2021/03/29 04:58:39;;;;;;;13.10;4.93;;;10.40;76.90;;;;;;5091934;28;20034;-67
2021/03/29 05:01:05;;;;;;;12.57;4.70;;;10.40;77.50;;;;;;5090889;28;20127;-67
2021/03/29 05:03:30;;;;;;;14.85;4.75;;;10.30;77.00;;;;;;5073509;28;20028;-66
2021/03/29 05:05:56;;;;;;;14.90;5.10;;;10.30;77.10;;;;;;5091696;28;20085;-67
2021/03/29 05:08:21;;;;;;;11.73;4.25;;;10.30;77.10;;;;;;5073046;28;20055;-67
2021/03/29 05:10:47;;;;;;;13.18;4.65;;;10.40;77.10;;;;;;5091321;28;20032;-67
2021/03/29 05:13:13;;;;;;;13.75;4.20;;;10.30;77.00;;;;;;5073156;28;20036;-67
2021/03/29 05:15:39;;;;;;;13.23;4.53;;;10.40;77.00;;;;;;5091438;28;20032;-68
2021/03/29 05:18:04;;;;;;;10.90;3.80;;;10.40;77.00;;;;;;5091634;28;20032;-67
2021/03/29 05:20:30;;;;;;;11.07;4.20;;;10.40;76.90;;;;;;5090625;28;20044;-68
2021/03/29 05:22:56;;;;;;;13.10;4.57;;;10.40;76.80;;;;;;5091328;28;20038;-67
2021/03/29 05:25:21;;;;;;;12.50;4.40;;;10.40;76.80;;;;;;5072793;28;20048;-66
2021/03/29 05:27:47;;;;;;;13.63;3.92;;;10.50;76.80;;;;;;5091617;28;20047;-67
2021/03/29 05:30:13;;;;;;;12.63;4.25;;;10.50;76.70;;;;;;5091042;28;20036;-67
2021/03/29 05:32:39;;;;;;;16.33;4.70;;;10.50;76.60;;;;;;5090717;28;20540;-67
2021/03/29 05:35:05;;;;;;;10.43;3.47;;;10.60;76.50;;;;;;5091315;28;20032;-66
2021/03/29 05:37:31;;;;;;;12.10;4.32;;;10.60;76.30;;;;;;5073136;28;20051;-67
2021/03/29 05:39:58;;;;;;;10.88;3.75;;;10.60;76.30;;;;;;5090660;28;20040;-66
2021/03/29 05:42:27;;;;;;;10.77;3.88;;;10.60;76.10;;;;;;5091018;28;20042;-67
2021/03/29 05:45:05;;;;;;;12.48;4.22;;;10.70;76.00;;;;;;5072651;28;20040;-67
2021/03/29 05:47:31;;;;;;;15.40;4.43;;;10.70;75.80;;;;;;5091080;28;20121;-67
2021/03/29 05:49:59;;;;;;;8.88;3.22;;;10.70;75.70;;;;;;5090399;28;20032;-67
2021/03/29 05:52:26;;;;;;;12.40;3.70;;;10.80;75.50;;;;;;5091007;28;20067;-67
2021/03/29 05:54:53;;;;;;;12.82;3.85;;;10.80;75.40;;;;;;5090884;28;20510;-68
2021/03/29 05:57:20;;;;;;;11.50;3.75;;;10.80;75.30;;;;;;5077155;28;20040;-66
2021/03/29 05:59:45;;;;;;;9.52;3.65;;;10.90;75.10;;;;;;5077139;28;20046;-67
2021/03/29 06:02:29;;;;;;;11.20;3.85;;;10.90;75.10;;;;;;5094624;28;20044;-66
2021/03/29 06:04:55;;;;;;;12.02;3.40;;;11.00;75.00;;;;;;5095135;28;20089;-67
2021/03/29 06:07:21;;;;;;;11.25;3.67;;;11.10;74.70;;;;;;5076485;28;20135;-69
2021/03/29 06:09:49;;;;;;;15.15;3.90;;;11.10;74.50;;;;;;5094828;28;20127;-68
2021/03/29 06:12:17;;;;;;;11.25;3.80;;;11.10;74.50;;;;;;5094210;28;20058;-69
2021/03/29 06:14:44;;;;;;;13.52;4.13;;;11.10;74.20;;;;;;5094569;28;20028;-68
2021/03/29 06:17:11;;;;;;;11.63;3.72;;;11.10;74.00;;;;;;5094463;28;20488;-68
2021/03/29 06:19:45;;;;;;;12.23;3.10;;;11.10;73.90;;;;;;5094094;28;20040;-68
2021/03/29 06:22:23;;;;;;;12.15;3.60;;;11.20;73.70;;;;;;5094487;28;20388;-67
2021/03/29 06:24:53;;;;;;;12.10;3.75;;;11.10;73.50;;;;;;5076463;28;20035;-67
2021/03/29 06:27:20;;;;;;;13.80;3.53;;;11.10;73.40;;;;;;5076473;28;20408;-68
2021/03/29 06:29:50;;;;;;;11.48;3.65;;;11.10;73.50;;;;;;5094236;28;20047;-69
2021/03/29 06:32:20;;;;;;;13.02;3.80;;;11.10;73.50;;;;;;5076719;28;20044;-68
2021/03/29 06:34:49;;;;;;;11.13;4.03;;;11.10;73.50;;;;;;5075694;28;20059;-68
2021/03/29 06:37:19;;;;;;;10.65;3.38;;;11.10;73.60;;;;;;5094039;28;20067;-68
2021/03/29 06:39:45;;;;;;;13.50;3.67;;;11.30;73.60;;;;;;5076079;28;20039;-67
2021/03/29 06:42:11;;;;;;;10.35;3.70;;;11.30;73.20;;;;;;5093655;28;20048;-68
2021/03/29 06:44:38;;;;;;;12.75;4.70;;;11.30;72.90;;;;;;5094372;28;20028;-69
2021/03/29 06:47:15;;;;;;;9.98;3.30;;;11.40;73.10;;;;;;5093433;28;20052;-69
2021/03/29 06:49:45;;;;;;;10.95;3.40;;;11.60;73.10;;;;;;5094081;28;20400;-67
2021/03/29 06:52:20;;;;;;;11.10;3.30;;;11.70;72.80;;;;;;5093476;28;20059;-68
2021/03/29 06:54:46;;;;;;;12.75;3.22;;;11.90;72.50;;;;;;5093936;28;20047;-68
2021/03/29 06:57:13;;;;;;;14.63;3.97;;;12.10;72.70;;;;;;5093402;28;20131;-69
2021/03/29 06:59:39;;;;;;;11.90;3.35;;;12.50;73.00;;;;;;5093776;28;20123;-68
2021/03/29 07:02:08;;;;;;;8.73;3.22;;;13.10;72.90;;;;;;5093441;28;20471;-65
2021/03/29 07:04:36;;;;;;;12.75;3.78;;;13.60;71.80;;;;;;5075822;28;20045;-65
2021/03/29 07:07:05;;;;;;;9.60;3.40;;;14.00;70.50;;;;;;5093582;28;20085;-65
2021/03/29 07:09:36;;;;;;;10.27;3.40;;;14.20;69.40;;;;;;5093136;28;20036;-64
2021/03/29 07:12:07;;;;;;;9.23;3.40;;;14.40;68.90;;;;;;5093441;28;20046;-64
2021/03/29 07:14:34;;;;;;;12.43;4.55;;;14.60;69.20;;;;;;5093114;28;20118;-67
2021/03/29 07:17:00;;;;;;;11.15;3.78;;;14.90;68.70;;;;;;5093442;28;20036;-65
2021/03/29 07:19:29;;;;;;;12.88;3.35;;;15.00;67.10;;;;;;5093463;28;20051;-65
2021/03/29 07:21:55;;;;;;;15.48;3.25;;;14.90;65.90;;;;;;5092829;28;20028;-65
2021/03/29 07:24:27;;;;;;;12.18;3.38;;;14.70;65.60;;;;;;5093305;28;20036;-68
2021/03/29 07:27:01;;;;;;;11.80;3.50;;;15.00;68.00;;;;;;5074621;28;20039;-65
2021/03/29 07:29:31;;;;;;;10.82;3.42;;;15.30;65.70;;;;;;5075097;28;20156;-64
2021/03/29 07:32:05;;;;;;;9.80;3.13;;;15.20;64.70;;;;;;5092572;28;20092;-68
2021/03/29 07:34:52;;;;;;;8.88;3.08;;;15.10;64.50;;;;;;5074980;28;20042;-68
2021/03/29 07:37:36;;;;;;;12.38;3.40;;;14.90;64.00;;;;;;5073998;28;20036;-67
2021/03/29 07:40:20;;;;;;;11.73;4.25;;;14.70;64.10;;;;;;5085492;28;20116;-66
2021/03/29 07:43:13;;;;;;;9.88;3.33;;;14.50;64.00;;;;;;5074508;28;20032;-67
2021/03/29 07:45:47;;;;;;;10.25;3.38;;;14.40;64.30;;;;;;5092074;28;20040;-67
2021/03/29 07:48:36;;;;;;;12.65;3.45;;;14.40;64.30;;;;;;5075300;28;20046;-67
2021/03/29 07:51:14;;;;;;;10.77;3.38;;;14.20;64.50;;;;;;5092114;28;20035;-68
2021/03/29 07:53:52;;;;;;;13.30;3.60;;;14.20;64.00;;;;;;5092178;28;20052;-68
2021/03/29 07:56:41;;;;;;;13.77;3.35;;;14.10;64.20;;;;;;5074342;28;20036;-68
2021/03/29 07:59:07;;;;;;;12.35;3.58;;;14.10;63.80;;;;;;5092035;28;20052;-68
2021/03/29 08:01:59;;;;;;;9.73;3.03;;;14.10;64.00;;;;;;5056642;28;20038;-68
2021/03/29 08:05:06;;;;;;;13.45;3.50;;;14.00;63.70;;;;;;5090517;28;20144;-68
2021/03/29 08:07:40;;;;;;;12.55;3.15;;;14.00;64.40;;;;;;5091358;28;20119;-65
2021/03/29 08:10:11;;;;;;;11.02;3.47;;;14.70;65.30;;;;;;5091080;28;20040;-67
2021/03/29 08:12:56;;;;;;;9.50;3.10;;;15.50;65.60;;;;;;5056607;28;21298;-68
2021/03/29 08:15:22;;;;;;;9.75;3.30;;;15.90;62.40;;;;;;5091114;28;20073;-67
2021/03/29 08:17:49;;;;;;;10.68;3.13;;;15.60;60.70;;;;;;5091112;28;20070;-67
2021/03/29 08:20:24;;;;;;;11.60;3.58;;;15.20;60.20;;;;;;5091356;28;20389;-66
2021/03/29 08:23:27;;;;;;;9.68;3.35;;;14.70;60.80;;;;;;5091202;28;20035;-66
2021/03/29 08:26:10;;;;;;;11.50;3.35;;;14.30;61.50;;;;;;5091286;28;20115;-67
2021/03/29 08:29:07;;;;;;;11.13;3.55;;;14.10;62.30;;;;;;5091392;28;20070;-65
2021/03/29 08:32:13;;;;;;;12.45;3.90;;;14.00;62.80;;;;;;5091313;28;20490;-66
2021/03/29 08:34:59;;;;;;;9.57;3.67;;;13.90;62.80;;;;;;5091117;28;20081;-67
2021/03/29 08:37:40;;;;;;;10.32;3.35;;;13.80;63.30;;;;;;5090875;28;20400;-67
2021/03/29 08:40:18;;;;;;;12.35;3.03;;;13.80;63.50;;;;;;5073189;28;20044;-66
2021/03/29 08:42:46;;;;;;;10.43;3.40;;;14.00;63.90;;;;;;5091374;28;20036;-66
2021/03/29 08:45:21;;;;;;;9.85;3.35;;;14.10;63.50;;;;;;5091924;28;20065;-65
2021/03/29 08:47:50;;;;;;;12.48;3.95;;;14.20;63.80;;;;;;5090882;28;20081;-64
2021/03/29 08:50:31;;;;;;;10.48;3.63;;;14.30;63.10;;;;;;5073036;28;20128;-65
2021/03/29 08:53:02;;;;;;;11.43;3.40;;;14.30;63.30;;;;;;5090782;28;20063;-65
2021/03/29 08:55:36;;;;;;;10.35;3.20;;;14.30;63.50;;;;;;5090754;28;20448;-65
2021/03/29 08:58:03;;;;;;;9.65;3.50;;;14.50;63.80;;;;;;5090569;28;20146;-65
2021/03/29 09:00:36;;;;;;;10.77;3.60;;;14.90;64.10;;;;;;5090878;28;20131;-65
2021/03/29 09:03:02;;;;;;;9.75;3.55;;;16.00;64.70;;;;;;5090382;28;20526;-66
2021/03/29 09:05:28;;;;;;;12.32;3.53;;;18.20;65.50;;;;;;5090924;28;20399;-66
2021/03/29 09:07:54;;;;;;;9.40;2.90;;;19.60;60.10;;;;;;5090066;28;20039;-65
2021/03/29 09:10:33;;;;;;;10.70;3.10;;;19.40;55.20;;;;;;5072604;28;20127;-66
2021/03/29 09:13:13;;;;;;;11.00;3.28;;;18.40;54.30;;;;;;5090644;28;20032;-66
2021/03/29 09:15:40;;;;;;;;;;;17.50;55.50;;;;;;5091228;28;20036;-66
2021/03/29 09:18:13;;;;;;;10.07;3.00;;;17.10;56.60;;;;;;5091083;28;19912;-65
2021/03/29 09:20:41;;;;;;;9.90;3.50;;;16.80;56.90;;;;;;5089816;28;20361;-65
2021/03/29 09:23:11;;;;;;;11.35;4.40;;;16.70;57.20;;;;;;5090647;28;20032;-67
2021/03/29 09:25:40;;;;;;;10.57;3.70;;;16.50;57.00;;;;;;5090085;28;20040;-68
2021/03/29 09:28:19;;;;;;;11.85;3.40;;;16.40;57.10;;;;;;5090723;28;20036;-68
2021/03/29 09:30:51;;;;;;;12.35;3.65;;;16.30;57.20;;;;;;5089020;28;20040;-67
2021/03/29 09:33:19;;;;;;;11.55;3.70;;;16.30;57.50;;;;;;5090743;28;20032;-66
2021/03/29 09:35:45;;;;;;;10.55;3.40;;;16.30;57.40;;;;;;5072119;28;20043;-67
2021/03/29 09:38:13;;;;;;;12.02;3.67;;;16.40;57.80;;;;;;5072440;28;20093;-67
2021/03/29 09:40:39;;;;;;;10.70;3.40;;;16.60;57.70;;;;;;5090143;28;20521;-67
2021/03/29 09:43:05;;;;;;;9.88;3.53;;;16.80;57.30;;;;;;5090090;28;20040;-67
2021/03/29 09:45:34;;;;;;;10.00;3.60;;;17.00;57.00;;;;;;5090099;28;20043;-65
2021/03/29 09:48:05;;;;;;;10.60;3.75;;;17.00;56.20;;;;;;5071687;28;20043;-66
2021/03/29 09:50:43;;;;;;;12.50;3.83;;;17.10;56.50;;;;;;5090354;28;20467;-67
2021/03/29 09:53:11;;;;;;;9.90;3.72;;;17.30;56.40;;;;;;5089753;28;20070;-68
2021/03/29 09:55:55;;;;;;;10.32;3.70;;;17.80;56.90;;;;;;5090258;28;20032;-68
2021/03/29 09:58:27;;;;;;;9.38;3.17;;;18.20;55.00;;;;;;5090025;28;20537;-68
2021/03/29 10:00:55;;;;;;;11.98;3.45;;;18.20;54.30;;;;;;5055233;28;20044;-67
2021/03/29 10:03:22;;;;;;;9.25;3.35;;;18.60;55.20;;;;;;5096218;28;20545;-67
2021/03/29 10:05:50;;;;;;;8.60;3.30;;;19.50;54.90;;;;;;5096169;28;20028;-68
2021/03/29 10:08:29;;;;;;;8.52;3.20;;;21.00;53.60;;;;;;5083574;28;20035;-69
2021/03/29 10:11:21;;;;;;;9.60;2.90;;;22.00;51.80;;;;;;5110362;28;20046;-68
2021/03/29 10:13:47;;;;;;;10.57;3.33;;;24.50;50.20;;;;;;5106402;28;20032;-68
2021/03/29 10:16:19;;;;;;;8.57;3.08;;;25.10;46.90;;;;;;5110624;28;20103;-69
2021/03/29 10:18:47;;;;;;;8.48;3.05;;;26.30;45.80;;;;;;5110109;28;20538;-69
2021/03/29 10:21:13;;;;;;;11.20;3.28;;;27.40;43.80;;;;;;5110099;28;20130;-69
2021/03/29 10:23:42;;;;;;;10.27;3.60;;;27.20;41.10;;;;;;5098246;28;20488;-69
2021/03/29 10:26:29;;;;;;;8.43;3.10;;;26.10;39.30;;;;;;5091350;28;20122;-69
2021/03/29 10:29:04;;;;;;;8.50;3.05;;;25.80;41.20;;;;;;5092597;28;20391;-68
2021/03/29 10:31:31;;;;;;;8.40;3.08;;;25.40;40.10;;;;;;5091636;28;20039;-69
2021/03/29 10:33:58;;;;;;;7.93;3.20;;;24.70;39.80;;;;;;5099360;28;20078;-69
2021/03/29 10:36:26;;;;;;;9.88;3.40;;;24.10;40.70;;;;;;5071578;28;20032;-68
2021/03/29 10:38:52;;;;;;;8.98;3.03;;;25.00;42.10;;;;;;5089842;28;20036;-69
2021/03/29 10:41:19;;;;;;;8.90;3.33;;;25.10;39.40;;;;;;5089762;28;20055;-68
2021/03/29 10:43:45;;;;;;;8.70;3.28;;;25.00;40.30;;;;;;5093461;28;20031;-69
2021/03/29 10:46:11;;;;;;;10.10;3.63;;;25.90;40.40;;;;;;5092710;28;20052;-68
2021/03/29 10:48:38;;;;;;;7.28;2.92;;;26.80;39.40;;;;;;5093383;28;20032;-69
2021/03/29 10:51:05;;;;;;;8.65;3.17;;;27.50;38.60;;;;;;5092911;28;20115;-69
2021/03/29 10:53:32;;;;;;;9.23;2.97;;;28.00;37.40;;;;;;5092870;28;20071;-68
2021/03/29 10:55:58;;;;;;;9.48;3.15;;;28.40;36.90;;;;;;5093130;28;20085;-68
2021/03/29 10:58:24;;;;;;;9.23;3.53;;;29.40;36.40;;;;;;5092772;28;20040;-68
2021/03/29 11:00:50;;;;;;;9.80;3.33;;;29.80;34.60;;;;;;5092871;28;20042;-68
2021/03/29 11:03:16;;;;;;;9.13;3.13;;;29.10;34.70;;;;;;5093116;28;20063;-69
2021/03/29 11:05:42;;;;;;;8.40;3.28;;;28.70;34.00;;;;;;5092507;28;20564;-68
2021/03/29 11:08:08;;;;;;;9.50;2.85;;;28.40;34.60;;;;;;5075054;28;20556;-68
2021/03/29 11:10:33;;;;;;;7.57;3.47;;;28.30;34.40;;;;;;5092395;28;20036;-69
2021/03/29 11:13:01;;;;;;;9.10;3.72;;;28.10;34.10;;;;;;5074925;28;20392;-68
2021/03/29 11:15:27;;;;;;;8.63;3.35;;;27.70;34.20;;;;;;5092879;28;20028;-68
2021/03/29 11:17:52;;;;;;;9.13;3.25;;;27.30;34.60;;;;;;5074089;28;20036;-68
2021/03/29 11:20:18;;;;;;;11.02;3.42;;;27.40;34.90;;;;;;5092054;28;20044;-69
2021/03/29 11:22:44;;;;;;;9.57;3.30;;;27.50;35.00;;;;;;5092172;28;20055;-68
2021/03/29 11:25:11;;;;;;;7.93;3.15;;;27.50;35.00;;;;;;5092685;28;20040;-69
2021/03/29 11:27:37;;;;;;;9.23;3.30;;;27.50;35.40;;;;;;5092642;28;20047;-68
2021/03/29 11:30:08;;;;;;;10.95;3.22;;;27.30;34.60;;;;;;5091939;28;20404;-70
2021/03/29 11:32:34;;;;;;;9.80;3.72;;;26.50;34.80;;;;;;5092413;28;20036;-68
2021/03/29 11:35:00;;;;;;;9.45;3.22;;;25.50;34.90;;;;;;5092357;28;20046;-68
2021/03/29 11:37:26;;;;;;;8.48;3.55;;;24.40;35.70;;;;;;5073952;28;20384;-67
2021/03/29 11:39:52;;;;;;;8.45;3.30;;;23.80;38.10;;;;;;5092248;28;20044;-68
2021/03/29 11:42:18;;;;;;;10.05;3.50;;;24.20;39.10;;;;;;5091348;28;20040;-68
2021/03/29 11:44:44;;;;;;;8.32;3.42;;;25.20;39.40;;;;;;5092477;28;20097;-68
2021/03/29 11:47:10;;;;;;;10.35;3.42;;;26.00;38.50;;;;;;5073659;28;20054;-70
2021/03/29 11:49:36;;;;;;;7.50;3.33;;;26.00;37.20;;;;;;5091461;28;20047;-70
2021/03/29 11:52:02;;;;;;;7.85;3.67;;;25.40;36.50;;;;;;5091688;28;20055;-71
2021/03/29 11:54:28;;;;;;;8.82;3.58;;;24.50;37.10;;;;;;5090899;28;20495;-72
2021/03/29 11:56:54;;;;;;;10.82;3.38;;;24.10;38.60;;;;;;5092031;28;20085;-70
2021/03/29 11:59:20;;;;;;;10.35;3.60;;;24.20;39.70;;;;;;5073912;28;20032;-70
2021/03/29 12:01:49;;;;;;;9.27;3.67;;;24.60;39.90;;;;;;5073301;28;20032;-71
2021/03/29 12:09:28;;;;;;;9.25;3.30;;;24.40;38.90;;;;;;5091752;28;20036;-71
2021/03/29 12:12:07;;;;;;;8.35;3.90;;;24.50;39.90;;;;;;5091116;28;20043;-71
2021/03/29 12:14:36;;;;;;;8.45;3.28;;;25.20;40.70;;;;;;5091879;28;20518;-70
2021/03/29 12:17:04;;;;;;;10.45;3.17;;;26.90;41.10;;;;;;5056362;28;20061;-70
2021/03/29 12:19:31;;;;;;;9.55;3.80;;;27.90;39.00;;;;;;5091628;28;20306;-69
2021/03/29 12:22:01;;;;;;;9.20;3.58;;;27.90;36.80;;;;;;5090350;28;20388;-70
2021/03/29 12:24:31;;;;;;;10.00;4.18;;;27.60;36.40;;;;;;5091590;28;20054;-69
2021/03/29 12:27:02;;;;;;;8.32;3.85;;;26.80;35.50;;;;;;5091572;28;20056;-69
2021/03/29 12:32:10;;;;;;;9.82;4.32;;;25.40;37.30;;;;;;5090843;28;20173;-69
2021/03/29 12:34:46;;;;;;;10.77;4.55;;;25.00;38.10;;;;;;5090960;28;20031;-69
2021/03/29 12:37:18;;;;;;;8.43;4.07;;;24.70;38.20;;;;;;5072909;28;20032;-70
2021/03/29 12:39:49;;;;;;;10.75;4.00;;;24.60;39.00;;;;;;5090599;28;20032;-69
2021/03/29 12:42:18;;;;;;;9.48;3.53;;;24.80;38.90;;;;;;5091105;28;20032;-70
2021/03/29 12:44:45;;;;;;;9.43;4.03;;;25.20;39.30;;;;;;5090832;28;20035;-69
2021/03/29 12:47:13;;;;;;;10.27;3.85;;;25.30;38.70;;;;;;5090994;28;20040;-70
2021/03/29 12:49:39;;;;;;;10.27;4.18;;;25.20;38.70;;;;;;5090606;28;20028;-70
2021/03/29 12:52:05;;;;;;;10.38;4.18;;;25.60;39.00;;;;;;5089718;28;20043;-71
2021/03/29 12:54:32;;;;;;;8.57;4.10;;;25.20;38.00;;;;;;5091051;28;20028;-70
2021/03/29 12:57:00;;;;;;;10.57;4.38;;;24.50;38.20;;;;;;5090102;28;20123;-69
2021/03/29 12:59:30;;;;;;;9.00;3.92;;;24.20;39.70;;;;;;5090838;28;20035;-69
2021/03/29 13:01:57;;;;;;;10.68;4.80;;;24.30;40.50;;;;;;5089646;28;20082;-68